sensor_id;sensor_type;location;lat;lon;timestamp;P1;durP1;ratioP1;P2;durP2;ratioP2
23266;SDS011;11802;53.160;8.214;2023-07-16T00:01:51;4.82;;;2.30;;
23266;SDS011;11802;53.160;8.214;2023-07-16T00:04:17;5.22;;;2.30;;
23266;SDS011;11802;53.160;8.214;2023-07-16T00:06:42;6.22;;;2.40;;
23266;SDS011;11802;53.160;8.214;2023-07-16T00:09:08;5.95;;;2.60;;
23266;SDS011;11802;53.160;8.214;2023-07-16T00:11:33;7.70;;;2.70;;
23266;SDS011;11802;53.160;8.214;2023-07-16T00:13:59;7.90;;;2.53;;
23266;SDS011;11802;53.160;8.214;2023-07-16T00:16:26;3.35;;;2.10;;
23266;SDS011;11802;53.160;8.214;2023-07-16T00:18:52;9.13;;;2.60;;
23266;SDS011;11802;53.160;8.214;2023-07-16T00:21:18;4.53;;;2.10;;
23266;SDS011;11802;53.160;8.214;2023-07-16T00:23:43;5.07;;;2.05;;
23266;SDS011;11802;53.160;8.214;2023-07-16T00:26:09;5.45;;;2.08;;
23266;SDS011;11802;53.160;8.214;2023-07-16T00:28:34;5.95;;;2.20;;
23266;SDS011;11802;53.160;8.214;2023-07-16T00:31:00;7.53;;;2.47;;
23266;SDS011;11802;53.160;8.214;2023-07-16T00:33:26;8.35;;;1.95;;
23266;SDS011;11802;53.160;8.214;2023-07-16T00:35:52;11.20;;;2.38;;
23266;SDS011;11802;53.160;8.214;2023-07-16T00:38:17;4.28;;;2.15;;
23266;SDS011;11802;53.160;8.214;2023-07-16T00:40:43;5.15;;;2.30;;
23266;SDS011;11802;53.160;8.214;2023-07-16T00:43:09;7.82;;;2.45;;
23266;SDS011;11802;53.160;8.214;2023-07-16T00:45:35;8.25;;;2.65;;
23266;SDS011;11802;53.160;8.214;2023-07-16T00:48:01;7.03;;;2.70;;
23266;SDS011;11802;53.160;8.214;2023-07-16T00:50:29;6.72;;;2.30;;
23266;SDS011;11802;53.160;8.214;2023-07-16T00:52:58;8.02;;;2.45;;
23266;SDS011;11802;53.160;8.214;2023-07-16T00:55:28;6.97;;;2.72;;
23266;SDS011;11802;53.160;8.214;2023-07-16T00:57:54;7.28;;;2.65;;
23266;SDS011;11802;53.160;8.214;2023-07-16T01:00:25;6.72;;;2.60;;
23266;SDS011;11802;53.160;8.214;2023-07-16T01:02:50;7.60;;;2.65;;
23266;SDS011;11802;53.160;8.214;2023-07-16T01:05:16;5.22;;;2.53;;
23266;SDS011;11802;53.160;8.214;2023-07-16T01:07:42;5.82;;;2.78;;
23266;SDS011;11802;53.160;8.214;2023-07-16T01:10:19;6.40;;;2.53;;
23266;SDS011;11802;53.160;8.214;2023-07-16T01:12:46;6.65;;;2.55;;
23266;SDS011;11802;53.160;8.214;2023-07-16T01:15:11;4.93;;;2.35;;
23266;SDS011;11802;53.160;8.214;2023-07-16T01:17:37;8.88;;;2.90;;
23266;SDS011;11802;53.160;8.214;2023-07-16T01:20:03;7.75;;;2.65;;
23266;SDS011;11802;53.160;8.214;2023-07-16T01:28:17;9.27;;;3.13;;
23266;SDS011;11802;53.160;8.214;2023-07-16T01:30:59;5.93;;;2.72;;
23266;SDS011;11802;53.160;8.214;2023-07-16T01:33:25;7.03;;;2.88;;
23266;SDS011;11802;53.160;8.214;2023-07-16T01:35:51;6.43;;;2.92;;
23266;SDS011;11802;53.160;8.214;2023-07-16T01:38:17;7.82;;;3.47;;
23266;SDS011;11802;53.160;8.214;2023-07-16T01:40:44;5.70;;;3.05;;
23266;SDS011;11802;53.160;8.214;2023-07-16T01:43:09;7.93;;;3.05;;
23266;SDS011;11802;53.160;8.214;2023-07-16T01:45:35;7.22;;;2.80;;
23266;SDS011;11802;53.160;8.214;2023-07-16T01:48:05;6.47;;;3.08;;
23266;SDS011;11802;53.160;8.214;2023-07-16T01:50:47;7.32;;;3.03;;
23266;SDS011;11802;53.160;8.214;2023-07-16T01:53:12;7.10;;;3.05;;
23266;SDS011;11802;53.160;8.214;2023-07-16T01:55:38;8.50;;;2.97;;
23266;SDS011;11802;53.160;8.214;2023-07-16T01:58:03;5.18;;;2.85;;
23266;SDS011;11802;53.160;8.214;2023-07-16T02:00:30;8.38;;;3.30;;
23266;SDS011;11802;53.160;8.214;2023-07-16T02:02:56;6.78;;;3.45;;
23266;SDS011;11802;53.160;8.214;2023-07-16T02:05:21;7.95;;;3.17;;
23266;SDS011;11802;53.160;8.214;2023-07-16T02:07:47;10.48;;;3.08;;
23266;SDS011;11802;53.160;8.214;2023-07-16T02:10:12;11.07;;;3.38;;
23266;SDS011;11802;53.160;8.214;2023-07-16T02:12:38;9.77;;;3.95;;
23266;SDS011;11802;53.160;8.214;2023-07-16T02:15:03;9.10;;;3.20;;
23266;SDS011;11802;53.160;8.214;2023-07-16T02:17:29;6.30;;;3.05;;
23266;SDS011;11802;53.160;8.214;2023-07-16T02:19:55;9.20;;;2.72;;
23266;SDS011;11802;53.160;8.214;2023-07-16T02:22:20;5.60;;;3.05;;
23266;SDS011;11802;53.160;8.214;2023-07-16T02:24:46;7.32;;;2.88;;
23266;SDS011;11802;53.160;8.214;2023-07-16T02:27:11;5.75;;;2.83;;
23266;SDS011;11802;53.160;8.214;2023-07-16T02:29:37;8.93;;;2.97;;
23266;SDS011;11802;53.160;8.214;2023-07-16T02:32:02;7.72;;;3.15;;
23266;SDS011;11802;53.160;8.214;2023-07-16T02:34:28;7.40;;;3.72;;
23266;SDS011;11802;53.160;8.214;2023-07-16T02:36:53;9.20;;;2.72;;
23266;SDS011;11802;53.160;8.214;2023-07-16T02:39:19;8.65;;;3.25;;
23266;SDS011;11802;53.160;8.214;2023-07-16T02:41:44;8.43;;;3.40;;
23266;SDS011;11802;53.160;8.214;2023-07-16T02:44:10;8.10;;;2.90;;
23266;SDS011;11802;53.160;8.214;2023-07-16T02:46:35;6.03;;;2.80;;
23266;SDS011;11802;53.160;8.214;2023-07-16T02:49:02;7.45;;;3.30;;
23266;SDS011;11802;53.160;8.214;2023-07-16T02:51:28;6.28;;;3.10;;
23266;SDS011;11802;53.160;8.214;2023-07-16T02:53:53;5.32;;;3.47;;
23266;SDS011;11802;53.160;8.214;2023-07-16T02:56:19;9.52;;;3.40;;
23266;SDS011;11802;53.160;8.214;2023-07-16T02:58:44;8.27;;;3.80;;
23266;SDS011;11802;53.160;8.214;2023-07-16T03:01:10;10.30;;;3.60;;
23266;SDS011;11802;53.160;8.214;2023-07-16T03:03:36;8.80;;;3.30;;
23266;SDS011;11802;53.160;8.214;2023-07-16T03:06:02;6.97;;;3.60;;
23266;SDS011;11802;53.160;8.214;2023-07-16T03:08:27;10.15;;;3.58;;
23266;SDS011;11802;53.160;8.214;2023-07-16T03:10:55;7.78;;;3.10;;
23266;SDS011;11802;53.160;8.214;2023-07-16T03:13:21;17.77;;;3.80;;
23266;SDS011;11802;53.160;8.214;2023-07-16T03:15:47;5.72;;;3.42;;
23266;SDS011;11802;53.160;8.214;2023-07-16T03:18:12;8.15;;;3.72;;
23266;SDS011;11802;53.160;8.214;2023-07-16T03:20:38;7.00;;;3.35;;
23266;SDS011;11802;53.160;8.214;2023-07-16T03:23:03;10.52;;;3.97;;
23266;SDS011;11802;53.160;8.214;2023-07-16T03:25:29;10.07;;;3.72;;
23266;SDS011;11802;53.160;8.214;2023-07-16T03:27:55;9.90;;;4.05;;
23266;SDS011;11802;53.160;8.214;2023-07-16T03:30:20;8.15;;;3.88;;
23266;SDS011;11802;53.160;8.214;2023-07-16T03:32:46;8.88;;;3.88;;
23266;SDS011;11802;53.160;8.214;2023-07-16T03:35:11;6.90;;;3.95;;
23266;SDS011;11802;53.160;8.214;2023-07-16T03:37:37;7.60;;;3.97;;
23266;SDS011;11802;53.160;8.214;2023-07-16T03:40:12;9.45;;;3.95;;
23266;SDS011;11802;53.160;8.214;2023-07-16T03:42:39;8.60;;;4.00;;
23266;SDS011;11802;53.160;8.214;2023-07-16T03:45:05;9.65;;;4.05;;
23266;SDS011;11802;53.160;8.214;2023-07-16T03:47:32;8.85;;;3.67;;
23266;SDS011;11802;53.160;8.214;2023-07-16T03:49:57;8.73;;;3.92;;
23266;SDS011;11802;53.160;8.214;2023-07-16T03:52:23;9.70;;;3.75;;
23266;SDS011;11802;53.160;8.214;2023-07-16T03:54:49;9.48;;;3.90;;
23266;SDS011;11802;53.160;8.214;2023-07-16T03:57:15;18.90;;;4.50;;
23266;SDS011;11802;53.160;8.214;2023-07-16T03:59:41;13.68;;;4.15;;
23266;SDS011;11802;53.160;8.214;2023-07-16T04:02:08;10.15;;;4.25;;
23266;SDS011;11802;53.160;8.214;2023-07-16T04:04:33;13.32;;;4.40;;
23266;SDS011;11802;53.160;8.214;2023-07-16T04:06:59;9.38;;;3.85;;
23266;SDS011;11802;53.160;8.214;2023-07-16T04:09:25;9.98;;;4.32;;
23266;SDS011;11802;53.160;8.214;2023-07-16T04:11:50;8.65;;;3.60;;
23266;SDS011;11802;53.160;8.214;2023-07-16T04:14:16;9.88;;;3.97;;
23266;SDS011;11802;53.160;8.214;2023-07-16T04:16:42;8.68;;;3.55;;
23266;SDS011;11802;53.160;8.214;2023-07-16T04:19:08;11.48;;;3.58;;
23266;SDS011;11802;53.160;8.214;2023-07-16T04:21:34;6.63;;;2.72;;
23266;SDS011;11802;53.160;8.214;2023-07-16T04:23:59;8.63;;;2.92;;
23266;SDS011;11802;53.160;8.214;2023-07-16T04:26:25;8.75;;;2.95;;
23266;SDS011;11802;53.160;8.214;2023-07-16T04:28:50;8.23;;;2.63;;
23266;SDS011;11802;53.160;8.214;2023-07-16T04:31:16;8.45;;;2.60;;
23266;SDS011;11802;53.160;8.214;2023-07-16T04:33:41;9.60;;;2.67;;
23266;SDS011;11802;53.160;8.214;2023-07-16T04:36:07;7.95;;;3.00;;
23266;SDS011;11802;53.160;8.214;2023-07-16T04:38:32;8.88;;;2.58;;
23266;SDS011;11802;53.160;8.214;2023-07-16T04:40:58;9.52;;;2.70;;
23266;SDS011;11802;53.160;8.214;2023-07-16T04:43:23;6.13;;;2.50;;
23266;SDS011;11802;53.160;8.214;2023-07-16T04:45:50;9.63;;;2.45;;
23266;SDS011;11802;53.160;8.214;2023-07-16T04:48:16;8.02;;;2.70;;
23266;SDS011;11802;53.160;8.214;2023-07-16T04:50:41;8.98;;;3.03;;
23266;SDS011;11802;53.160;8.214;2023-07-16T04:53:07;9.15;;;2.53;;
23266;SDS011;11802;53.160;8.214;2023-07-16T04:55:38;8.15;;;2.67;;
23266;SDS011;11802;53.160;8.214;2023-07-16T04:58:05;6.95;;;2.17;;
23266;SDS011;11802;53.160;8.214;2023-07-16T05:00:33;8.25;;;2.78;;
23266;SDS011;11802;53.160;8.214;2023-07-16T05:02:59;8.25;;;2.78;;
23266;SDS011;11802;53.160;8.214;2023-07-16T05:05:25;5.82;;;2.20;;
23266;SDS011;11802;53.160;8.214;2023-07-16T05:07:50;8.50;;;2.15;;
23266;SDS011;11802;53.160;8.214;2023-07-16T05:10:16;6.10;;;2.53;;
23266;SDS011;11802;53.160;8.214;2023-07-16T05:12:41;7.53;;;2.38;;
23266;SDS011;11802;53.160;8.214;2023-07-16T05:15:07;6.32;;;2.50;;
23266;SDS011;11802;53.160;8.214;2023-07-16T05:17:33;8.57;;;2.60;;
23266;SDS011;11802;53.160;8.214;2023-07-16T05:19:58;7.80;;;2.75;;
23266;SDS011;11802;53.160;8.214;2023-07-16T05:22:24;8.02;;;2.92;;
23266;SDS011;11802;53.160;8.214;2023-07-16T05:24:49;5.80;;;2.92;;
23266;SDS011;11802;53.160;8.214;2023-07-16T05:27:15;6.35;;;3.03;;
23266;SDS011;11802;53.160;8.214;2023-07-16T05:29:41;6.68;;;2.70;;
23266;SDS011;11802;53.160;8.214;2023-07-16T05:32:06;8.57;;;2.92;;
23266;SDS011;11802;53.160;8.214;2023-07-16T05:34:32;6.78;;;2.90;;
23266;SDS011;11802;53.160;8.214;2023-07-16T05:36:58;6.93;;;2.72;;
23266;SDS011;11802;53.160;8.214;2023-07-16T05:39:24;9.07;;;3.28;;
23266;SDS011;11802;53.160;8.214;2023-07-16T05:41:49;8.43;;;3.42;;
23266;SDS011;11802;53.160;8.214;2023-07-16T05:44:15;7.75;;;3.35;;
23266;SDS011;11802;53.160;8.214;2023-07-16T05:46:41;10.38;;;3.30;;
23266;SDS011;11802;53.160;8.214;2023-07-16T05:49:06;8.00;;;2.90;;
23266;SDS011;11802;53.160;8.214;2023-07-16T05:51:32;11.63;;;3.03;;
23266;SDS011;11802;53.160;8.214;2023-07-16T05:53:57;7.40;;;3.17;;
23266;SDS011;11802;53.160;8.214;2023-07-16T05:56:23;6.35;;;2.83;;
23266;SDS011;11802;53.160;8.214;2023-07-16T05:58:48;9.00;;;2.90;;
23266;SDS011;11802;53.160;8.214;2023-07-16T06:01:14;8.07;;;2.40;;
23266;SDS011;11802;53.160;8.214;2023-07-16T06:03:39;9.57;;;2.70;;
23266;SDS011;11802;53.160;8.214;2023-07-16T06:06:05;7.57;;;2.60;;
23266;SDS011;11802;53.160;8.214;2023-07-16T06:08:33;11.40;;;2.83;;
23266;SDS011;11802;53.160;8.214;2023-07-16T06:10:58;6.43;;;2.75;;
23266;SDS011;11802;53.160;8.214;2023-07-16T06:13:24;6.00;;;2.38;;
23266;SDS011;11802;53.160;8.214;2023-07-16T06:15:49;5.82;;;2.22;;
23266;SDS011;11802;53.160;8.214;2023-07-16T06:18:15;7.35;;;2.70;;
23266;SDS011;11802;53.160;8.214;2023-07-16T06:20:46;6.35;;;2.35;;
23266;SDS011;11802;53.160;8.214;2023-07-16T06:23:12;6.88;;;2.20;;
23266;SDS011;11802;53.160;8.214;2023-07-16T06:25:38;9.68;;;2.60;;
23266;SDS011;11802;53.160;8.214;2023-07-16T06:28:05;5.03;;;2.28;;
23266;SDS011;11802;53.160;8.214;2023-07-16T06:30:31;10.40;;;2.55;;
23266;SDS011;11802;53.160;8.214;2023-07-16T06:32:57;7.03;;;2.10;;
23266;SDS011;11802;53.160;8.214;2023-07-16T06:35:23;5.97;;;2.30;;
23266;SDS011;11802;53.160;8.214;2023-07-16T06:37:49;5.35;;;2.70;;
23266;SDS011;11802;53.160;8.214;2023-07-16T06:40:14;6.60;;;2.30;;
23266;SDS011;11802;53.160;8.214;2023-07-16T06:42:40;4.95;;;2.55;;
23266;SDS011;11802;53.160;8.214;2023-07-16T06:45:06;8.98;;;2.28;;
23266;SDS011;11802;53.160;8.214;2023-07-16T06:47:32;6.35;;;2.50;;
23266;SDS011;11802;53.160;8.214;2023-07-16T06:49:57;5.40;;;2.40;;
23266;SDS011;11802;53.160;8.214;2023-07-16T06:52:23;5.03;;;2.55;;
23266;SDS011;11802;53.160;8.214;2023-07-16T06:54:55;5.45;;;2.10;;
23266;SDS011;11802;53.160;8.214;2023-07-16T06:57:22;6.13;;;2.28;;
23266;SDS011;11802;53.160;8.214;2023-07-16T06:59:48;6.03;;;2.58;;
23266;SDS011;11802;53.160;8.214;2023-07-16T07:02:15;9.32;;;2.47;;
23266;SDS011;11802;53.160;8.214;2023-07-16T07:04:41;6.72;;;2.22;;
23266;SDS011;11802;53.160;8.214;2023-07-16T07:07:06;8.35;;;3.03;;
23266;SDS011;11802;53.160;8.214;2023-07-16T07:09:32;6.88;;;2.92;;
23266;SDS011;11802;53.160;8.214;2023-07-16T07:11:57;4.95;;;2.60;;
23266;SDS011;11802;53.160;8.214;2023-07-16T07:14:23;5.57;;;2.65;;
23266;SDS011;11802;53.160;8.214;2023-07-16T07:16:48;5.80;;;2.22;;
23266;SDS011;11802;53.160;8.214;2023-07-16T07:19:14;8.13;;;2.60;;
23266;SDS011;11802;53.160;8.214;2023-07-16T07:21:39;5.28;;;2.20;;
23266;SDS011;11802;53.160;8.214;2023-07-16T07:24:05;5.13;;;2.40;;
23266;SDS011;11802;53.160;8.214;2023-07-16T07:26:30;7.40;;;2.40;;
23266;SDS011;11802;53.160;8.214;2023-07-16T07:28:56;7.13;;;2.30;;
23266;SDS011;11802;53.160;8.214;2023-07-16T07:31:22;6.45;;;2.53;;
23266;SDS011;11802;53.160;8.214;2023-07-16T07:33:47;6.65;;;2.78;;
23266;SDS011;11802;53.160;8.214;2023-07-16T07:36:13;5.70;;;2.42;;
23266;SDS011;11802;53.160;8.214;2023-07-16T07:38:38;5.28;;;2.40;;
23266;SDS011;11802;53.160;8.214;2023-07-16T07:41:04;5.43;;;2.25;;
23266;SDS011;11802;53.160;8.214;2023-07-16T07:43:30;6.13;;;2.65;;
23266;SDS011;11802;53.160;8.214;2023-07-16T07:45:56;3.28;;;2.10;;
23266;SDS011;11802;53.160;8.214;2023-07-16T07:48:21;9.27;;;2.75;;
23266;SDS011;11802;53.160;8.214;2023-07-16T07:50:47;5.30;;;2.53;;
23266;SDS011;11802;53.160;8.214;2023-07-16T07:53:13;4.80;;;2.40;;
23266;SDS011;11802;53.160;8.214;2023-07-16T07:55:40;4.82;;;2.13;;
23266;SDS011;11802;53.160;8.214;2023-07-16T07:58:07;5.57;;;2.53;;
23266;SDS011;11802;53.160;8.214;2023-07-16T08:00:32;7.28;;;2.35;;
23266;SDS011;11802;53.160;8.214;2023-07-16T08:02:58;5.65;;;2.35;;
23266;SDS011;11802;53.160;8.214;2023-07-16T08:05:24;6.88;;;2.90;;
23266;SDS011;11802;53.160;8.214;2023-07-16T08:07:49;4.38;;;2.35;;
23266;SDS011;11802;53.160;8.214;2023-07-16T08:10:16;7.32;;;2.75;;
23266;SDS011;11802;53.160;8.214;2023-07-16T08:12:42;4.63;;;2.50;;
23266;SDS011;11802;53.160;8.214;2023-07-16T08:15:07;6.90;;;2.63;;
23266;SDS011;11802;53.160;8.214;2023-07-16T08:17:38;7.10;;;2.58;;
23266;SDS011;11802;53.160;8.214;2023-07-16T08:20:05;5.43;;;2.85;;
23266;SDS011;11802;53.160;8.214;2023-07-16T08:22:32;7.97;;;2.40;;
23266;SDS011;11802;53.160;8.214;2023-07-16T08:24:57;5.82;;;2.55;;
23266;SDS011;11802;53.160;8.214;2023-07-16T08:27:23;5.53;;;2.28;;
23266;SDS011;11802;53.160;8.214;2023-07-16T08:29:48;4.70;;;2.47;;
23266;SDS011;11802;53.160;8.214;2023-07-16T08:32:14;5.70;;;2.60;;
23266;SDS011;11802;53.160;8.214;2023-07-16T08:34:39;5.05;;;2.55;;
23266;SDS011;11802;53.160;8.214;2023-07-16T08:37:05;7.20;;;2.70;;
23266;SDS011;11802;53.160;8.214;2023-07-16T08:39:31;5.97;;;2.80;;
23266;SDS011;11802;53.160;8.214;2023-07-16T08:41:56;4.93;;;2.55;;
23266;SDS011;11802;53.160;8.214;2023-07-16T08:44:22;5.63;;;2.63;;
23266;SDS011;11802;53.160;8.214;2023-07-16T08:46:48;5.75;;;3.10;;
23266;SDS011;11802;53.160;8.214;2023-07-16T08:49:15;6.35;;;3.05;;
23266;SDS011;11802;53.160;8.214;2023-07-16T08:51:44;7.22;;;2.97;;
23266;SDS011;11802;53.160;8.214;2023-07-16T08:54:12;8.05;;;3.10;;
23266;SDS011;11802;53.160;8.214;2023-07-16T08:56:40;4.85;;;2.83;;
23266;SDS011;11802;53.160;8.214;2023-07-16T08:59:07;5.53;;;3.10;;
23266;SDS011;11802;53.160;8.214;2023-07-16T09:01:36;9.38;;;3.47;;
23266;SDS011;11802;53.160;8.214;2023-07-16T09:04:02;8.60;;;2.85;;
23266;SDS011;11802;53.160;8.214;2023-07-16T09:06:28;6.88;;;3.00;;
23266;SDS011;11802;53.160;8.214;2023-07-16T09:08:54;7.47;;;3.47;;
23266;SDS011;11802;53.160;8.214;2023-07-16T09:11:20;7.10;;;3.45;;
23266;SDS011;11802;53.160;8.214;2023-07-16T09:13:46;10.70;;;3.38;;
23266;SDS011;11802;53.160;8.214;2023-07-16T09:16:12;6.88;;;3.10;;
23266;SDS011;11802;53.160;8.214;2023-07-16T09:18:41;5.68;;;3.20;;
23266;SDS011;11802;53.160;8.214;2023-07-16T09:21:06;8.07;;;3.20;;
23266;SDS011;11802;53.160;8.214;2023-07-16T09:23:32;9.40;;;3.70;;
23266;SDS011;11802;53.160;8.214;2023-07-16T09:25:58;9.52;;;3.75;;
23266;SDS011;11802;53.160;8.214;2023-07-16T09:28:24;8.02;;;3.53;;
23266;SDS011;11802;53.160;8.214;2023-07-16T09:30:50;8.63;;;3.63;;
23266;SDS011;11802;53.160;8.214;2023-07-16T09:33:17;6.93;;;3.47;;
23266;SDS011;11802;53.160;8.214;2023-07-16T09:35:44;7.18;;;3.20;;
23266;SDS011;11802;53.160;8.214;2023-07-16T09:38:16;5.28;;;2.85;;
23266;SDS011;11802;53.160;8.214;2023-07-16T09:40:42;10.73;;;3.35;;
23266;SDS011;11802;53.160;8.214;2023-07-16T09:43:08;6.05;;;3.15;;
23266;SDS011;11802;53.160;8.214;2023-07-16T09:45:35;7.72;;;2.95;;
23266;SDS011;11802;53.160;8.214;2023-07-16T09:48:00;5.93;;;2.90;;
23266;SDS011;11802;53.160;8.214;2023-07-16T09:50:28;9.68;;;3.05;;
23266;SDS011;11802;53.160;8.214;2023-07-16T09:52:57;5.45;;;2.72;;
23266;SDS011;11802;53.160;8.214;2023-07-16T09:55:23;7.30;;;2.55;;
23266;SDS011;11802;53.160;8.214;2023-07-16T09:57:54;4.75;;;2.63;;
23266;SDS011;11802;53.160;8.214;2023-07-16T10:00:22;7.03;;;2.80;;
23266;SDS011;11802;53.160;8.214;2023-07-16T10:02:49;5.80;;;2.25;;
23266;SDS011;11802;53.160;8.214;2023-07-16T10:07:52;9.55;;;2.85;;
23266;SDS011;11802;53.160;8.214;2023-07-16T10:10:19;5.50;;;2.60;;
23266;SDS011;11802;53.160;8.214;2023-07-16T10:12:55;6.60;;;2.42;;
23266;SDS011;11802;53.160;8.214;2023-07-16T10:15:26;8.18;;;2.92;;
23266;SDS011;11802;53.160;8.214;2023-07-16T10:17:53;6.60;;;2.63;;
23266;SDS011;11802;53.160;8.214;2023-07-16T10:20:35;6.45;;;3.28;;
23266;SDS011;11802;53.160;8.214;2023-07-16T10:23:13;4.88;;;2.83;;
23266;SDS011;11802;53.160;8.214;2023-07-16T10:25:40;7.68;;;3.10;;
23266;SDS011;11802;53.160;8.214;2023-07-16T10:28:22;6.28;;;2.80;;
23266;SDS011;11802;53.160;8.214;2023-07-16T10:30:49;5.63;;;2.95;;
23266;SDS011;11802;53.160;8.214;2023-07-16T10:33:15;6.75;;;3.03;;
23266;SDS011;11802;53.160;8.214;2023-07-16T10:35:49;8.65;;;2.92;;
23266;SDS011;11802;53.160;8.214;2023-07-16T10:38:15;6.78;;;2.65;;
23266;SDS011;11802;53.160;8.214;2023-07-16T10:40:40;6.43;;;2.80;;
23266;SDS011;11802;53.160;8.214;2023-07-16T10:43:07;9.30;;;3.05;;
23266;SDS011;11802;53.160;8.214;2023-07-16T10:45:33;6.80;;;3.33;;
23266;SDS011;11802;53.160;8.214;2023-07-16T10:47:59;6.10;;;2.92;;
23266;SDS011;11802;53.160;8.214;2023-07-16T10:50:24;8.75;;;3.08;;
23266;SDS011;11802;53.160;8.214;2023-07-16T10:52:51;7.20;;;2.63;;
23266;SDS011;11802;53.160;8.214;2023-07-16T10:55:18;6.47;;;3.17;;
23266;SDS011;11802;53.160;8.214;2023-07-16T10:57:44;5.82;;;2.50;;
23266;SDS011;11802;53.160;8.214;2023-07-16T11:00:11;6.15;;;2.78;;
23266;SDS011;11802;53.160;8.214;2023-07-16T11:02:39;6.32;;;2.30;;
23266;SDS011;11802;53.160;8.214;2023-07-16T11:05:11;5.05;;;2.20;;
23266;SDS011;11802;53.160;8.214;2023-07-16T11:07:42;6.18;;;2.70;;
23266;SDS011;11802;53.160;8.214;2023-07-16T11:10:11;5.13;;;2.63;;
23266;SDS011;11802;53.160;8.214;2023-07-16T11:12:39;6.20;;;2.80;;
23266;SDS011;11802;53.160;8.214;2023-07-16T11:15:07;5.05;;;2.60;;
23266;SDS011;11802;53.160;8.214;2023-07-16T11:17:33;7.07;;;2.92;;
23266;SDS011;11802;53.160;8.214;2023-07-16T11:19:59;7.45;;;2.80;;
23266;SDS011;11802;53.160;8.214;2023-07-16T11:22:26;5.70;;;2.65;;
23266;SDS011;11802;53.160;8.214;2023-07-16T11:24:52;6.30;;;3.00;;
23266;SDS011;11802;53.160;8.214;2023-07-16T11:27:19;6.65;;;2.70;;
23266;SDS011;11802;53.160;8.214;2023-07-16T11:29:53;7.32;;;3.03;;
23266;SDS011;11802;53.160;8.214;2023-07-16T11:35:03;7.60;;;3.22;;
23266;SDS011;11802;53.160;8.214;2023-07-16T11:37:30;5.90;;;2.88;;
23266;SDS011;11802;53.160;8.214;2023-07-16T11:39:57;4.47;;;2.85;;
23266;SDS011;11802;53.160;8.214;2023-07-16T11:42:35;6.72;;;3.38;;
23266;SDS011;11802;53.160;8.214;2023-07-16T11:45:02;3.45;;;2.50;;
23266;SDS011;11802;53.160;8.214;2023-07-16T11:47:29;8.57;;;3.13;;
23266;SDS011;11802;53.160;8.214;2023-07-16T11:49:55;5.20;;;2.50;;
23266;SDS011;11802;53.160;8.214;2023-07-16T11:52:23;5.22;;;2.40;;
23266;SDS011;11802;53.160;8.214;2023-07-16T11:54:51;3.97;;;2.53;;
23266;SDS011;11802;53.160;8.214;2023-07-16T11:57:17;5.60;;;2.72;;
23266;SDS011;11802;53.160;8.214;2023-07-16T11:59:42;6.05;;;2.80;;
23266;SDS011;11802;53.160;8.214;2023-07-16T12:02:08;6.57;;;2.70;;
23266;SDS011;11802;53.160;8.214;2023-07-16T12:04:34;7.38;;;2.53;;
23266;SDS011;11802;53.160;8.214;2023-07-16T12:06:59;6.35;;;2.60;;
23266;SDS011;11802;53.160;8.214;2023-07-16T12:09:25;6.10;;;3.00;;
23266;SDS011;11802;53.160;8.214;2023-07-16T12:11:51;5.90;;;3.10;;
23266;SDS011;11802;53.160;8.214;2023-07-16T12:14:16;6.65;;;2.75;;
23266;SDS011;11802;53.160;8.214;2023-07-16T12:16:42;7.03;;;2.95;;
23266;SDS011;11802;53.160;8.214;2023-07-16T12:19:08;6.45;;;2.95;;
23266;SDS011;11802;53.160;8.214;2023-07-16T12:21:34;9.20;;;2.92;;
23266;SDS011;11802;53.160;8.214;2023-07-16T12:23:59;7.45;;;3.38;;
23266;SDS011;11802;53.160;8.214;2023-07-16T12:26:25;3.97;;;2.72;;
23266;SDS011;11802;53.160;8.214;2023-07-16T12:28:50;4.85;;;2.97;;
23266;SDS011;11802;53.160;8.214;2023-07-16T12:31:16;7.93;;;3.00;;
23266;SDS011;11802;53.160;8.214;2023-07-16T12:33:42;8.05;;;3.22;;
23266;SDS011;11802;53.160;8.214;2023-07-16T12:36:08;6.30;;;3.20;;
23266;SDS011;11802;53.160;8.214;2023-07-16T12:38:34;7.13;;;2.85;;
23266;SDS011;11802;53.160;8.214;2023-07-16T12:40:59;6.32;;;3.10;;
23266;SDS011;11802;53.160;8.214;2023-07-16T12:43:25;8.25;;;3.05;;
23266;SDS011;11802;53.160;8.214;2023-07-16T12:45:50;6.57;;;3.17;;
23266;SDS011;11802;53.160;8.214;2023-07-16T12:48:16;9.60;;;3.33;;
23266;SDS011;11802;53.160;8.214;2023-07-16T12:50:41;6.45;;;2.83;;
23266;SDS011;11802;53.160;8.214;2023-07-16T12:53:07;7.35;;;3.30;;
23266;SDS011;11802;53.160;8.214;2023-07-16T12:55:33;4.75;;;2.70;;
23266;SDS011;11802;53.160;8.214;2023-07-16T12:57:59;6.32;;;3.28;;
23266;SDS011;11802;53.160;8.214;2023-07-16T13:00:24;6.18;;;3.10;;
23266;SDS011;11802;53.160;8.214;2023-07-16T13:02:50;6.20;;;3.10;;
23266;SDS011;11802;53.160;8.214;2023-07-16T13:05:15;5.82;;;3.22;;
23266;SDS011;11802;53.160;8.214;2023-07-16T13:07:41;7.03;;;3.42;;
23266;SDS011;11802;53.160;8.214;2023-07-16T13:10:07;9.90;;;3.67;;
23266;SDS011;11802;53.160;8.214;2023-07-16T13:12:33;8.23;;;3.70;;
23266;SDS011;11802;53.160;8.214;2023-07-16T13:14:59;7.80;;;3.90;;
23266;SDS011;11802;53.160;8.214;2023-07-16T13:17:24;6.78;;;3.35;;
23266;SDS011;11802;53.160;8.214;2023-07-16T13:19:50;6.35;;;3.60;;
23266;SDS011;11802;53.160;8.214;2023-07-16T13:22:15;8.52;;;3.65;;
23266;SDS011;11802;53.160;8.214;2023-07-16T13:24:41;7.07;;;3.35;;
23266;SDS011;11802;53.160;8.214;2023-07-16T13:27:06;7.85;;;3.42;;
23266;SDS011;11802;53.160;8.214;2023-07-16T13:29:35;8.02;;;3.88;;
23266;SDS011;11802;53.160;8.214;2023-07-16T13:32:00;5.55;;;3.47;;
23266;SDS011;11802;53.160;8.214;2023-07-16T13:34:26;8.02;;;3.78;;
23266;SDS011;11802;53.160;8.214;2023-07-16T13:36:51;8.07;;;3.58;;
23266;SDS011;11802;53.160;8.214;2023-07-16T13:39:17;6.55;;;3.33;;
23266;SDS011;11802;53.160;8.214;2023-07-16T13:41:42;7.82;;;3.70;;
23266;SDS011;11802;53.160;8.214;2023-07-16T13:44:08;8.48;;;3.50;;
23266;SDS011;11802;53.160;8.214;2023-07-16T13:46:33;9.27;;;4.07;;
23266;SDS011;11802;53.160;8.214;2023-07-16T13:48:59;9.27;;;4.63;;
23266;SDS011;11802;53.160;8.214;2023-07-16T13:51:25;6.68;;;3.63;;
23266;SDS011;11802;53.160;8.214;2023-07-16T13:53:51;6.55;;;4.20;;
23266;SDS011;11802;53.160;8.214;2023-07-16T13:56:16;6.93;;;3.42;;
23266;SDS011;11802;53.160;8.214;2023-07-16T13:58:42;5.65;;;3.47;;
23266;SDS011;11802;53.160;8.214;2023-07-16T14:01:08;7.97;;;3.45;;
23266;SDS011;11802;53.160;8.214;2023-07-16T14:03:33;9.63;;;3.83;;
23266;SDS011;11802;53.160;8.214;2023-07-16T14:05:59;6.95;;;3.42;;
23266;SDS011;11802;53.160;8.214;2023-07-16T14:08:24;5.93;;;3.75;;
23266;SDS011;11802;53.160;8.214;2023-07-16T14:10:49;8.05;;;3.70;;
23266;SDS011;11802;53.160;8.214;2023-07-16T14:13:15;7.55;;;3.53;;
23266;SDS011;11802;53.160;8.214;2023-07-16T14:15:41;7.38;;;3.45;;
23266;SDS011;11802;53.160;8.214;2023-07-16T14:18:07;7.72;;;3.50;;
23266;SDS011;11802;53.160;8.214;2023-07-16T14:20:32;8.32;;;3.25;;
23266;SDS011;11802;53.160;8.214;2023-07-16T14:22:58;8.38;;;3.45;;
23266;SDS011;11802;53.160;8.214;2023-07-16T14:25:23;8.48;;;3.47;;
23266;SDS011;11802;53.160;8.214;2023-07-16T14:27:49;6.38;;;3.20;;
23266;SDS011;11802;53.160;8.214;2023-07-16T14:30:15;8.63;;;3.35;;
23266;SDS011;11802;53.160;8.214;2023-07-16T14:32:40;5.75;;;2.97;;
23266;SDS011;11802;53.160;8.214;2023-07-16T14:35:08;6.20;;;3.28;;
23266;SDS011;11802;53.160;8.214;2023-07-16T14:37:34;11.85;;;3.75;;
23266;SDS011;11802;53.160;8.214;2023-07-16T14:39:59;6.63;;;3.38;;
23266;SDS011;11802;53.160;8.214;2023-07-16T14:42:25;9.25;;;3.42;;
23266;SDS011;11802;53.160;8.214;2023-07-16T14:44:50;7.40;;;3.33;;
23266;SDS011;11802;53.160;8.214;2023-07-16T14:47:16;6.90;;;3.45;;
23266;SDS011;11802;53.160;8.214;2023-07-16T14:49:41;6.90;;;3.38;;
23266;SDS011;11802;53.160;8.214;2023-07-16T14:52:07;7.50;;;3.33;;
23266;SDS011;11802;53.160;8.214;2023-07-16T14:54:32;6.20;;;3.58;;